createdAt,value
2023-04-18T00:02:24.403Z,8.80
2023-04-18T00:07:19.048Z,8.90
2023-04-18T00:12:13.820Z,8.80
2023-04-18T00:17:09.124Z,8.80
2023-04-18T00:22:02.948Z,8.80
2023-04-18T00:26:57.216Z,8.80
2023-04-18T00:31:51.931Z,8.80
2023-04-18T00:36:45.364Z,8.80
2023-04-18T00:41:38.675Z,8.80
2023-04-18T00:46:31.990Z,8.80
2023-04-18T00:51:28.012Z,8.90
2023-04-18T00:56:21.873Z,8.80
2023-04-18T01:01:15.190Z,8.80
2023-04-18T01:06:08.679Z,8.80
2023-04-18T01:11:03.435Z,8.80
2023-04-18T01:15:56.848Z,8.80
2023-04-18T01:20:53.171Z,8.80
2023-04-18T01:25:49.414Z,8.80
2023-04-18T01:30:43.046Z,8.70
2023-04-18T01:35:36.545Z,8.70
2023-04-18T01:40:30.210Z,8.70
2023-04-18T01:45:25.160Z,8.70
2023-04-18T01:50:18.508Z,8.70
2023-04-18T01:55:12.282Z,8.80
2023-04-18T02:00:07.768Z,8.70
2023-04-18T02:05:02.643Z,8.70
2023-04-18T02:09:56.120Z,8.80
2023-04-18T02:14:54.259Z,8.80
2023-04-18T02:19:47.589Z,8.80
2023-04-18T02:24:42.245Z,8.80
2023-04-18T02:29:35.606Z,8.70
2023-04-18T02:34:28.910Z,8.70
2023-04-18T02:39:22.696Z,8.80
2023-04-18T02:44:17.642Z,8.80
2023-04-18T02:49:11.344Z,8.80
2023-04-18T02:54:08.354Z,8.80
2023-04-18T02:59:01.797Z,8.80
2023-04-18T03:03:56.494Z,8.70
2023-04-18T03:08:49.861Z,8.80
2023-04-18T03:13:43.188Z,8.80
2023-04-18T03:18:36.495Z,8.80
2023-04-18T03:23:31.373Z,8.80
2023-04-18T03:28:24.745Z,8.80
2023-04-18T03:33:18.475Z,8.80
2023-04-18T03:38:11.797Z,8.80
2023-04-18T03:43:06.437Z,8.70
2023-04-18T03:47:59.757Z,8.70
2023-04-18T03:52:53.442Z,8.60
2023-04-18T03:57:47.290Z,8.60
2023-04-18T04:02:42.188Z,8.60
2023-04-18T04:07:35.616Z,8.60
2023-04-18T04:12:29.056Z,8.60
2023-04-18T04:17:22.437Z,8.60
2023-04-18T04:22:17.622Z,8.60
2023-04-18T04:27:12.565Z,8.70
2023-04-18T04:32:06.880Z,8.70
2023-04-18T04:37:00.850Z,8.70
2023-04-18T04:41:55.484Z,8.60
2023-04-18T04:46:49.921Z,8.60
2023-04-18T04:51:43.224Z,8.60
2023-04-18T04:56:36.836Z,8.60
2023-04-18T05:01:31.627Z,8.60
2023-04-18T05:06:26.621Z,8.60
2023-04-18T05:11:20.188Z,8.60
2023-04-18T05:16:13.587Z,8.70
2023-04-18T05:21:08.589Z,8.60
2023-04-18T05:26:01.932Z,8.60
2023-04-18T05:31:01.158Z,8.60
2023-04-18T05:35:54.902Z,8.70
2023-04-18T05:40:51.123Z,8.60
2023-04-18T05:45:44.468Z,8.70
2023-04-18T05:50:37.802Z,8.60
2023-04-18T05:55:31.133Z,8.60
2023-04-18T06:00:25.957Z,8.60
2023-04-18T06:05:19.863Z,8.60
2023-04-18T06:10:16.232Z,8.60
2023-04-18T06:15:11.658Z,8.70
2023-04-18T06:20:07.754Z,8.80
2023-04-18T06:25:01.052Z,8.80
2023-04-18T06:29:54.414Z,8.90
2023-04-18T06:34:47.710Z,8.90
2023-04-18T06:39:42.573Z,9.00
2023-04-18T06:44:36.694Z,9.10
2023-04-18T06:49:30.009Z,9.10
2023-04-18T06:54:23.329Z,9.20
2023-04-18T06:59:18.037Z,9.20
2023-04-18T07:04:11.704Z,9.10
2023-04-18T07:09:05.221Z,9.20
2023-04-18T07:13:58.591Z,9.20
2023-04-18T07:18:53.275Z,9.30
2023-04-18T07:23:46.655Z,9.20
2023-04-18T07:28:39.991Z,9.20
2023-04-18T07:33:33.921Z,9.30
2023-04-18T07:38:29.014Z,9.40
2023-04-18T07:43:22.538Z,9.40
2023-04-18T07:48:16.831Z,9.40
2023-04-18T07:53:10.288Z,9.40
2023-04-18T07:58:04.984Z,9.40
2023-04-18T08:02:58.414Z,9.40
2023-04-18T08:07:52.898Z,9.40
2023-04-18T08:12:46.466Z,9.50
2023-04-18T08:17:42.751Z,9.50
2023-04-18T08:22:44.036Z,9.60
2023-04-18T08:27:43.994Z,9.70
2023-04-18T08:32:38.209Z,9.80
2023-04-18T08:37:35.362Z,9.80
2023-04-18T08:42:29.036Z,9.90
2023-04-18T08:47:22.460Z,10.00
2023-04-18T08:52:17.921Z,10.00
2023-04-18T08:57:16.537Z,10.10
2023-04-18T09:02:11.739Z,10.30
2023-04-18T09:07:07.163Z,10.40
2023-04-18T09:12:09.138Z,10.40
2023-04-18T09:17:04.841Z,10.40
2023-04-18T09:22:04.569Z,10.30
2023-04-18T09:26:59.839Z,10.30
2023-04-18T09:31:59.793Z,10.30
2023-04-18T09:37:10.123Z,10.40
2023-04-18T09:42:03.638Z,10.70
2023-04-18T09:46:57.694Z,10.80
2023-04-18T09:51:53.074Z,11.00
2023-04-18T09:56:50.693Z,11.20
2023-04-18T10:01:48.427Z,11.40
2023-04-18T10:06:44.975Z,11.60
2023-04-18T10:11:39.087Z,11.60
2023-04-18T10:16:36.020Z,11.70
2023-04-18T10:21:31.478Z,11.70
2023-04-18T10:26:50.283Z,11.70
2023-04-18T10:31:48.399Z,11.80
2023-04-18T10:37:05.588Z,11.90
2023-04-18T10:41:58.984Z,12.00
2023-04-18T10:47:33.563Z,12.20
2023-04-18T10:52:29.443Z,12.60
2023-04-18T10:57:23.128Z,12.90
2023-04-18T11:02:26.498Z,13.10
2023-04-18T11:07:32.511Z,13.30
2023-04-18T11:12:25.864Z,13.50
2023-04-18T11:17:21.477Z,13.30
2023-04-18T11:22:15.366Z,13.10
2023-04-18T11:27:13.483Z,13.10
2023-04-18T11:32:08.943Z,13.50
2023-04-18T11:37:02.633Z,13.30
2023-04-18T11:41:58.218Z,13.50
2023-04-18T11:46:53.347Z,13.90
2023-04-18T11:51:48.003Z,13.80
2023-04-18T11:56:49.530Z,13.80
2023-04-18T12:01:42.938Z,14.10
2023-04-18T12:06:51.345Z,14.40
2023-04-18T12:11:45.033Z,14.40
2023-04-18T12:16:38.440Z,14.30
2023-04-18T12:21:33.103Z,14.50
2023-04-18T12:26:27.869Z,14.70
2023-04-18T12:31:22.597Z,14.50
2023-04-18T12:36:16.210Z,14.50
2023-04-18T12:41:09.686Z,14.50
2023-04-18T12:46:04.424Z,14.20
2023-04-18T12:50:57.746Z,14.00
2023-04-18T12:55:51.128Z,13.90
2023-04-18T13:00:44.599Z,14.00
2023-04-18T13:05:39.311Z,14.10
2023-04-18T13:10:33.159Z,14.20
2023-04-18T13:15:27.564Z,14.30
2023-04-18T13:20:21.039Z,14.20
2023-04-18T13:25:16.618Z,14.10
2023-04-18T13:30:12.152Z,14.20
2023-04-18T13:35:08.223Z,14.40
2023-04-18T13:40:01.551Z,14.40
2023-04-18T13:44:56.194Z,14.40
2023-04-18T13:49:49.504Z,14.60
2023-04-18T13:54:42.929Z,14.60
2023-04-18T13:59:36.331Z,14.50
2023-04-18T14:04:32.030Z,14.60
2023-04-18T14:09:25.428Z,14.70
2023-04-18T14:14:18.705Z,14.70
2023-04-18T14:19:12.269Z,14.80
2023-04-18T14:24:09.822Z,14.70
2023-04-18T14:29:04.317Z,14.70
2023-04-18T14:33:57.642Z,14.50
2023-04-18T14:38:51.175Z,14.40
2023-04-18T14:43:45.886Z,14.30
2023-04-18T14:48:39.166Z,14.30
2023-04-18T14:53:32.673Z,14.40
2023-04-18T14:58:26.009Z,14.30
2023-04-18T15:03:20.837Z,14.40
2023-04-18T15:08:15.841Z,14.30
2023-04-18T15:13:09.294Z,14.20
2023-04-18T15:18:03.147Z,14.10
2023-04-18T15:22:57.909Z,14.00
2023-04-18T15:27:51.247Z,13.90
2023-04-18T15:32:52.359Z,13.80
2023-04-18T15:37:45.724Z,13.90
2023-04-18T15:42:40.826Z,14.00
2023-04-18T15:47:35.026Z,13.80
2023-04-18T15:52:28.339Z,13.80
2023-04-18T15:57:22.232Z,13.80
2023-04-18T16:02:17.033Z,13.80
2023-04-18T16:07:10.543Z,13.80
2023-04-18T16:12:04.773Z,13.60
2023-04-18T16:17:00.819Z,13.60
2023-04-18T16:21:55.519Z,13.50
2023-04-18T16:26:48.811Z,13.60
2023-04-18T16:31:43.162Z,13.50
2023-04-18T16:36:36.586Z,13.40
2023-04-18T16:41:31.291Z,13.30
2023-04-18T16:46:25.399Z,13.20
2023-04-18T16:51:18.751Z,13.10
2023-04-18T16:56:12.180Z,13.00
2023-04-18T17:01:08.196Z,13.00
2023-04-18T17:06:02.022Z,13.00
2023-04-18T17:10:55.716Z,12.90
2023-04-18T17:15:48.992Z,12.90
2023-04-18T17:20:43.645Z,12.80
2023-04-18T17:25:36.992Z,12.90
2023-04-18T17:30:30.676Z,12.80
2023-04-18T17:35:24.145Z,12.80
2023-04-18T17:40:18.863Z,12.70
2023-04-18T17:45:12.308Z,12.70
2023-04-18T17:50:06.901Z,12.60
2023-04-18T17:55:01.563Z,12.50
2023-04-18T17:59:56.318Z,12.40
2023-04-18T18:04:49.576Z,12.40
2023-04-18T18:09:43.132Z,12.30
2023-04-18T18:14:36.487Z,12.30
2023-04-18T18:19:31.628Z,12.20
2023-04-18T18:24:32.533Z,12.10
2023-04-18T18:29:27.624Z,12.10
2023-04-18T18:34:45.236Z,12.10
2023-04-18T18:39:38.575Z,12.00
2023-04-18T18:44:37.116Z,12.00
2023-04-18T18:50:05.707Z,11.90
2023-04-18T18:55:28.092Z,11.80
2023-04-18T19:00:27.276Z,11.90
2023-04-18T19:05:26.757Z,11.80
2023-04-18T19:10:28.672Z,11.70
2023-04-18T19:15:27.561Z,11.60
2023-04-18T19:20:22.501Z,11.50
2023-04-18T19:25:26.745Z,11.50
2023-04-18T19:30:20.132Z,11.50
2023-04-18T19:35:13.916Z,11.40
2023-04-18T19:40:11.062Z,11.40
2023-04-18T19:45:04.919Z,11.30
2023-04-18T19:49:58.536Z,11.20
2023-04-18T19:54:53.582Z,11.10
2023-04-18T19:59:49.242Z,11.10
2023-04-18T20:04:44.233Z,11.20
2023-04-18T20:09:38.011Z,11.20
2023-04-18T20:14:31.867Z,11.10
2023-04-18T20:19:29.845Z,11.10
2023-04-18T20:24:28.109Z,11.00
2023-04-18T20:29:26.596Z,11.00
2023-04-18T20:34:23.151Z,11.00
2023-04-18T20:39:19.886Z,10.90
2023-04-18T20:44:19.187Z,10.90
2023-04-18T20:49:15.413Z,10.70
2023-04-18T20:54:09.048Z,10.60
2023-04-18T20:59:04.642Z,10.60
2023-04-18T21:03:58.111Z,10.60
2023-04-18T21:08:51.611Z,10.60
2023-04-18T21:13:44.962Z,10.60
2023-04-18T21:18:41.857Z,10.60
2023-04-18T21:23:41.724Z,10.60
2023-04-18T21:28:35.010Z,10.60
2023-04-18T21:33:28.351Z,10.60
2023-04-18T21:38:25.494Z,10.50
2023-04-18T21:43:18.764Z,10.50
2023-04-18T21:48:12.075Z,10.50
2023-04-18T21:53:05.353Z,10.40
2023-04-18T21:58:00.052Z,10.40
2023-04-18T22:02:53.528Z,10.40
2023-04-18T22:07:57.465Z,10.30
2023-04-18T22:12:54.025Z,10.20
2023-04-18T22:17:50.222Z,10.20
2023-04-18T22:22:43.804Z,10.20
2023-04-18T22:27:37.057Z,10.20
2023-04-18T22:32:30.342Z,10.10
2023-04-18T22:37:25.440Z,10.00
2023-04-18T22:42:18.743Z,9.90
2023-04-18T22:47:12.105Z,9.90
2023-04-18T22:52:06.297Z,9.80
2023-04-18T22:57:02.151Z,9.80
2023-04-18T23:01:55.621Z,9.70
2023-04-18T23:06:49.084Z,9.70
2023-04-18T23:11:42.554Z,9.70
2023-04-18T23:16:37.237Z,9.60
2023-04-18T23:21:31.223Z,9.70
2023-04-18T23:26:25.323Z,9.70
2023-04-18T23:31:19.593Z,9.70
2023-04-18T23:36:14.594Z,9.70
2023-04-18T23:41:08.215Z,9.70
2023-04-18T23:46:01.994Z,9.70
2023-04-18T23:50:55.916Z,9.70
2023-04-18T23:55:51.271Z,9.70
